sensor_id;sensor_type;location;lat;lon;timestamp;pressure;altitude;pressure_sealevel;temperature;humidity
6032;BME280;3044;43.232;27.972;2023-04-23T00:01:17;45117.63;;;-143.84;63.66
6032;BME280;3044;43.232;27.972;2023-04-23T00:03:45;45146.19;;;-143.84;63.40
6032;BME280;3044;43.232;27.972;2023-04-23T00:06:15;45161.41;;;-143.84;62.69
6032;BME280;3044;43.232;27.972;2023-04-23T00:08:42;45144.28;;;-143.84;63.16
6032;BME280;3044;43.232;27.972;2023-04-23T00:11:10;45161.41;;;-143.84;62.98
6032;BME280;3044;43.232;27.972;2023-04-23T00:13:37;45129.03;;;-143.84;62.88
6032;BME280;3044;43.232;27.972;2023-04-23T00:16:05;45146.19;;;-143.84;63.11
6032;BME280;3044;43.232;27.972;2023-04-23T00:18:34;45153.81;;;-143.84;63.65
6032;BME280;3044;43.232;27.972;2023-04-23T00:21:02;45163.31;;;-143.84;64.02
6032;BME280;3044;43.232;27.972;2023-04-23T00:23:29;45178.56;;;-143.84;64.00
6032;BME280;3044;43.232;27.972;2023-04-23T00:25:56;45165.22;;;-143.84;63.16
6032;BME280;3044;43.232;27.972;2023-04-23T00:28:23;45132.84;;;-143.84;62.94
6032;BME280;3044;43.232;27.972;2023-04-23T00:30:51;45121.44;;;-143.84;62.43
6032;BME280;3044;43.232;27.972;2023-04-23T00:33:18;45138.56;;;-143.84;62.23
6032;BME280;3044;43.232;27.972;2023-04-23T00:35:46;45159.50;;;-143.84;61.78
6032;BME280;3044;43.232;27.972;2023-04-23T00:38:14;45167.13;;;-143.84;61.80
6032;BME280;3044;43.232;27.972;2023-04-23T00:40:41;45121.44;;;-143.84;61.95
6032;BME280;3044;43.232;27.972;2023-04-23T00:43:08;45140.47;;;-143.84;61.46
6032;BME280;3044;43.232;27.972;2023-04-23T00:45:36;45136.66;;;-143.84;61.26
6032;BME280;3044;43.232;27.972;2023-04-23T00:48:03;45144.28;;;-143.84;61.83
6032;BME280;3044;43.232;27.972;2023-04-23T00:50:31;45150.00;;;-143.84;61.83
6032;BME280;3044;43.232;27.972;2023-04-23T00:53:00;45148.09;;;-143.84;62.01
6032;BME280;3044;43.232;27.972;2023-04-23T00:55:27;45163.31;;;-143.84;62.17
6032;BME280;3044;43.232;27.972;2023-04-23T00:57:55;45140.47;;;-143.84;62.59
6032;BME280;3044;43.232;27.972;2023-04-23T01:00:22;45129.03;;;-143.84;62.69
6032;BME280;3044;43.232;27.972;2023-04-23T01:02:49;45136.66;;;-143.84;62.28
6032;BME280;3044;43.232;27.972;2023-04-23T01:05:18;45140.47;;;-143.84;62.43
6032;BME280;3044;43.232;27.972;2023-04-23T01:07:46;45159.50;;;-143.84;62.43
6032;BME280;3044;43.232;27.972;2023-04-23T01:10:15;45159.50;;;-143.84;63.06
6032;BME280;3044;43.232;27.972;2023-04-23T01:12:43;45136.66;;;-143.84;63.28
6032;BME280;3044;43.232;27.972;2023-04-23T01:15:10;45125.22;;;-143.84;63.49
6032;BME280;3044;43.232;27.972;2023-04-23T01:17:37;45165.22;;;-143.84;63.96
6032;BME280;3044;43.232;27.972;2023-04-23T01:20:05;45142.38;;;-143.84;64.28
6032;BME280;3044;43.232;27.972;2023-04-23T01:22:36;45176.66;;;-143.84;64.91
6032;BME280;3044;43.232;27.972;2023-04-23T01:25:03;45172.84;;;-143.84;65.08
6032;BME280;3044;43.232;27.972;2023-04-23T01:27:32;45146.19;;;-143.84;65.67
6032;BME280;3044;43.232;27.972;2023-04-23T01:30:01;45170.94;;;-143.84;65.91
6032;BME280;3044;43.232;27.972;2023-04-23T01:32:29;45174.75;;;-143.84;66.44
6032;BME280;3044;43.232;27.972;2023-04-23T01:34:57;45146.19;;;-143.84;66.81
6032;BME280;3044;43.232;27.972;2023-04-23T01:37:25;45148.09;;;-143.84;66.93
6032;BME280;3044;43.232;27.972;2023-04-23T01:39:54;45169.03;;;-143.84;66.87
6032;BME280;3044;43.232;27.972;2023-04-23T01:42:22;45125.22;;;-143.84;66.90
6032;BME280;3044;43.232;27.972;2023-04-23T01:44:49;45176.66;;;-143.84;66.87
6032;BME280;3044;43.232;27.972;2023-04-23T01:47:17;45144.28;;;-143.84;66.88
6032;BME280;3044;43.232;27.972;2023-04-23T01:49:45;45140.47;;;-143.84;67.07
6032;BME280;3044;43.232;27.972;2023-04-23T01:52:12;45127.13;;;-143.84;67.16
6032;BME280;3044;43.232;27.972;2023-04-23T01:54:39;45132.84;;;-143.84;67.29
6032;BME280;3044;43.232;27.972;2023-04-23T01:57:08;45180.47;;;-143.84;67.17
6032;BME280;3044;43.232;27.972;2023-04-23T01:59:36;45134.75;;;-143.84;67.48
6032;BME280;3044;43.232;27.972;2023-04-23T02:02:03;45130.94;;;-143.84;67.52
6032;BME280;3044;43.232;27.972;2023-04-23T02:04:36;45148.09;;;-143.84;67.28
6032;BME280;3044;43.232;27.972;2023-04-23T02:07:04;45146.19;;;-143.84;67.68
6032;BME280;3044;43.232;27.972;2023-04-23T02:09:31;45163.31;;;-143.84;67.65
6032;BME280;3044;43.232;27.972;2023-04-23T02:11:58;45134.75;;;-143.84;67.64
6032;BME280;3044;43.232;27.972;2023-04-23T02:14:27;45153.81;;;-143.84;67.28
6032;BME280;3044;43.232;27.972;2023-04-23T02:16:55;45153.81;;;-143.84;67.35
6032;BME280;3044;43.232;27.972;2023-04-23T02:19:22;45159.50;;;-143.84;67.37
6032;BME280;3044;43.232;27.972;2023-04-23T02:21:49;45142.38;;;-143.84;66.89
6032;BME280;3044;43.232;27.972;2023-04-23T02:24:16;45180.47;;;-143.84;66.73
6032;BME280;3044;43.232;27.972;2023-04-23T02:26:43;45146.19;;;-143.84;66.58
6032;BME280;3044;43.232;27.972;2023-04-23T02:29:10;45157.59;;;-143.84;66.13
6032;BME280;3044;43.232;27.972;2023-04-23T02:31:39;45167.13;;;-143.84;66.43
6032;BME280;3044;43.232;27.972;2023-04-23T02:34:06;45136.66;;;-143.84;66.43
6032;BME280;3044;43.232;27.972;2023-04-23T02:36:33;45155.69;;;-143.84;66.50
6032;BME280;3044;43.232;27.972;2023-04-23T02:39:01;45136.66;;;-143.84;66.18
6032;BME280;3044;43.232;27.972;2023-04-23T02:41:28;45167.13;;;-143.84;66.06
6032;BME280;3044;43.232;27.972;2023-04-23T02:43:55;45148.09;;;-143.84;65.90
6032;BME280;3044;43.232;27.972;2023-04-23T02:46:22;45140.47;;;-143.84;65.99
6032;BME280;3044;43.232;27.972;2023-04-23T02:48:51;45130.94;;;-143.84;65.99
6032;BME280;3044;43.232;27.972;2023-04-23T02:51:18;45130.94;;;-143.84;66.19
6032;BME280;3044;43.232;27.972;2023-04-23T02:53:45;45155.69;;;-143.84;66.04
6032;BME280;3044;43.232;27.972;2023-04-23T02:56:12;45155.69;;;-143.84;65.56
6032;BME280;3044;43.232;27.972;2023-04-23T02:58:39;45167.13;;;-143.84;65.42
6032;BME280;3044;43.232;27.972;2023-04-23T03:01:06;45150.00;;;-143.84;65.32
6032;BME280;3044;43.232;27.972;2023-04-23T03:03:33;45140.47;;;-143.84;65.13
6032;BME280;3044;43.232;27.972;2023-04-23T03:06:03;45144.28;;;-143.84;65.13
6032;BME280;3044;43.232;27.972;2023-04-23T03:08:31;45138.56;;;-143.84;65.28
6032;BME280;3044;43.232;27.972;2023-04-23T03:10:58;45157.59;;;-143.84;65.55
6032;BME280;3044;43.232;27.972;2023-04-23T03:13:25;45127.13;;;-143.84;65.01
6032;BME280;3044;43.232;27.972;2023-04-23T03:15:53;45155.69;;;-143.84;64.74
6032;BME280;3044;43.232;27.972;2023-04-23T03:18:20;45129.03;;;-143.84;64.54
6032;BME280;3044;43.232;27.972;2023-04-23T03:20:48;45119.53;;;-143.84;65.01
6032;BME280;3044;43.232;27.972;2023-04-23T03:23:16;45140.47;;;-143.84;64.95
6032;BME280;3044;43.232;27.972;2023-04-23T03:25:43;45136.66;;;-143.84;64.79
6032;BME280;3044;43.232;27.972;2023-04-23T03:28:10;45146.19;;;-143.84;64.56
6032;BME280;3044;43.232;27.972;2023-04-23T03:30:38;45132.84;;;-143.84;64.71
6032;BME280;3044;43.232;27.972;2023-04-23T03:33:05;45155.69;;;-143.84;64.31
6032;BME280;3044;43.232;27.972;2023-04-23T03:35:32;45155.69;;;-143.84;64.45
6032;BME280;3044;43.232;27.972;2023-04-23T03:37:59;45150.00;;;-143.84;64.27
6032;BME280;3044;43.232;27.972;2023-04-23T03:40:27;45117.63;;;-143.84;64.22
6032;BME280;3044;43.232;27.972;2023-04-23T03:42:55;45140.47;;;-143.84;64.01
6032;BME280;3044;43.232;27.972;2023-04-23T03:45:24;45136.66;;;-143.84;64.19
6032;BME280;3044;43.232;27.972;2023-04-23T03:47:51;45125.22;;;-143.84;64.05
6032;BME280;3044;43.232;27.972;2023-04-23T03:50:18;45129.03;;;-143.84;63.78
6032;BME280;3044;43.232;27.972;2023-04-23T03:52:45;45113.81;;;-143.84;63.37
6032;BME280;3044;43.232;27.972;2023-04-23T03:55:12;45110.00;;;-143.84;62.49
6032;BME280;3044;43.232;27.972;2023-04-23T03:57:41;45151.91;;;-143.84;61.01
6032;BME280;3044;43.232;27.972;2023-04-23T04:00:09;45106.19;;;-143.84;58.88
6032;BME280;3044;43.232;27.972;2023-04-23T04:02:36;45134.75;;;-143.84;56.90
6032;BME280;3044;43.232;27.972;2023-04-23T04:05:04;45113.81;;;-143.84;55.67
6032;BME280;3044;43.232;27.972;2023-04-23T04:07:32;45144.28;;;-143.84;53.62
6032;BME280;3044;43.232;27.972;2023-04-23T04:10:00;45094.78;;;-143.84;51.96
6032;BME280;3044;43.232;27.972;2023-04-23T04:12:27;45121.44;;;-143.84;51.69
6032;BME280;3044;43.232;27.972;2023-04-23T04:14:56;45123.34;;;-143.84;51.19
6032;BME280;3044;43.232;27.972;2023-04-23T04:17:23;45110.00;;;-143.84;50.42
6032;BME280;3044;43.232;27.972;2023-04-23T04:19:50;45117.63;;;-143.84;49.77
6032;BME280;3044;43.232;27.972;2023-04-23T04:22:17;45108.09;;;-143.84;49.31
6032;BME280;3044;43.232;27.972;2023-04-23T04:24:45;45127.13;;;-143.84;49.17
6032;BME280;3044;43.232;27.972;2023-04-23T04:27:13;45125.22;;;-143.84;49.05
6032;BME280;3044;43.232;27.972;2023-04-23T04:29:41;45119.53;;;-143.84;49.62
6032;BME280;3044;43.232;27.972;2023-04-23T04:32:10;45111.91;;;-143.84;48.85
6032;BME280;3044;43.232;27.972;2023-04-23T04:34:38;45115.72;;;-143.84;48.14
6032;BME280;3044;43.232;27.972;2023-04-23T04:37:05;45090.97;;;-143.84;47.12
6032;BME280;3044;43.232;27.972;2023-04-23T04:39:32;45110.00;;;-143.84;46.69
6032;BME280;3044;43.232;27.972;2023-04-23T04:41:59;45121.44;;;-143.84;46.06
6032;BME280;3044;43.232;27.972;2023-04-23T04:44:27;45077.63;;;-143.84;45.29
6032;BME280;3044;43.232;27.972;2023-04-23T04:46:55;45106.19;;;-143.84;44.73
6032;BME280;3044;43.232;27.972;2023-04-23T04:49:23;45089.06;;;-143.84;43.80
6032;BME280;3044;43.232;27.972;2023-04-23T04:51:50;45079.53;;;-143.84;43.22
6032;BME280;3044;43.232;27.972;2023-04-23T04:54:18;45087.16;;;-143.84;42.63
6032;BME280;3044;43.232;27.972;2023-04-23T04:56:46;45075.72;;;-143.84;42.20
6032;BME280;3044;43.232;27.972;2023-04-23T04:59:13;45106.19;;;-143.84;41.65
6032;BME280;3044;43.232;27.972;2023-04-23T05:01:41;45035.75;;;-143.84;41.28
6032;BME280;3044;43.232;27.972;2023-04-23T05:04:08;45068.13;;;-143.84;40.99
6032;BME280;3044;43.232;27.972;2023-04-23T05:06:37;45089.06;;;-143.84;40.62
6032;BME280;3044;43.232;27.972;2023-04-23T05:09:04;45085.25;;;-143.84;40.51
6032;BME280;3044;43.232;27.972;2023-04-23T05:11:31;45077.63;;;-143.84;40.06
6032;BME280;3044;43.232;27.972;2023-04-23T05:14:00;45068.13;;;-143.84;39.73
6032;BME280;3044;43.232;27.972;2023-04-23T05:16:28;45050.97;;;-143.84;39.47
6032;BME280;3044;43.232;27.972;2023-04-23T05:18:56;45081.44;;;-143.84;39.06
6032;BME280;3044;43.232;27.972;2023-04-23T05:21:23;45039.53;;;-143.84;38.98
6032;BME280;3044;43.232;27.972;2023-04-23T05:23:53;45066.22;;;-143.84;38.89
6032;BME280;3044;43.232;27.972;2023-04-23T05:26:20;45075.72;;;-143.84;38.22
6032;BME280;3044;43.232;27.972;2023-04-23T05:28:48;45047.16;;;-143.84;37.98
6032;BME280;3044;43.232;27.972;2023-04-23T05:31:15;45031.94;;;-143.84;37.81
6032;BME280;3044;43.232;27.972;2023-04-23T05:33:42;45068.13;;;-143.84;37.99
6032;BME280;3044;43.232;27.972;2023-04-23T05:36:09;45049.06;;;-143.84;38.02
6032;BME280;3044;43.232;27.972;2023-04-23T05:38:37;45049.06;;;-143.84;37.16
6032;BME280;3044;43.232;27.972;2023-04-23T05:41:06;45047.16;;;-143.84;37.25
6032;BME280;3044;43.232;27.972;2023-04-23T05:43:33;45052.88;;;-143.84;37.03
6032;BME280;3044;43.232;27.972;2023-04-23T05:46:00;45045.25;;;-143.84;36.82
6032;BME280;3044;43.232;27.972;2023-04-23T05:48:29;45049.06;;;-143.84;36.62
6032;BME280;3044;43.232;27.972;2023-04-23T05:50:56;45026.22;;;-143.84;36.53
6032;BME280;3044;43.232;27.972;2023-04-23T05:53:23;45058.59;;;-143.84;34.90
6032;BME280;3044;43.232;27.972;2023-04-23T05:55:51;45052.88;;;-143.84;36.69
6032;BME280;3044;43.232;27.972;2023-04-23T05:58:19;45041.44;;;-143.84;36.43
6032;BME280;3044;43.232;27.972;2023-04-23T06:00:47;45031.94;;;-143.84;36.76
6032;BME280;3044;43.232;27.972;2023-04-23T06:03:14;45030.03;;;-143.84;37.35
6032;BME280;3044;43.232;27.972;2023-04-23T06:05:41;45052.88;;;-143.84;36.61
6032;BME280;3044;43.232;27.972;2023-04-23T06:08:08;45022.41;;;-143.84;35.57
6032;BME280;3044;43.232;27.972;2023-04-23T06:10:36;45047.16;;;-143.84;35.75
6032;BME280;3044;43.232;27.972;2023-04-23T06:13:03;45022.41;;;-143.84;36.00
6032;BME280;3044;43.232;27.972;2023-04-23T06:15:31;45047.16;;;-143.84;35.10
6032;BME280;3044;43.232;27.972;2023-04-23T06:17:59;45016.69;;;-143.84;35.01
6032;BME280;3044;43.232;27.972;2023-04-23T06:20:26;45049.06;;;-143.84;35.62
6032;BME280;3044;43.232;27.972;2023-04-23T06:22:53;45028.13;;;-143.84;35.10
6032;BME280;3044;43.232;27.972;2023-04-23T06:25:20;45047.16;;;-143.84;34.90
6032;BME280;3044;43.232;27.972;2023-04-23T06:27:47;45033.84;;;-143.84;35.09
6032;BME280;3044;43.232;27.972;2023-04-23T06:30:14;45031.94;;;-143.84;34.87
6032;BME280;3044;43.232;27.972;2023-04-23T06:32:43;45068.13;;;-143.84;36.66
6032;BME280;3044;43.232;27.972;2023-04-23T06:35:10;45030.03;;;-143.84;34.82
6032;BME280;3044;43.232;27.972;2023-04-23T06:37:37;45056.69;;;-143.84;35.32
6032;BME280;3044;43.232;27.972;2023-04-23T06:40:05;45018.59;;;-143.84;35.41
6032;BME280;3044;43.232;27.972;2023-04-23T06:42:32;45058.59;;;-143.84;35.48
6032;BME280;3044;43.232;27.972;2023-04-23T06:45:00;45066.22;;;-143.84;35.34
6032;BME280;3044;43.232;27.972;2023-04-23T06:47:29;45045.25;;;-143.84;35.50
6032;BME280;3044;43.232;27.972;2023-04-23T06:49:57;45037.66;;;-143.84;36.44
6032;BME280;3044;43.232;27.972;2023-04-23T06:52:26;45031.94;;;-143.84;36.61
6032;BME280;3044;43.232;27.972;2023-04-23T06:54:53;45049.06;;;-143.84;37.41
6032;BME280;3044;43.232;27.972;2023-04-23T06:57:20;45033.84;;;-143.84;37.29
6032;BME280;3044;43.232;27.972;2023-04-23T06:59:47;45043.34;;;-143.84;36.76
6032;BME280;3044;43.232;27.972;2023-04-23T07:02:14;45014.78;;;-143.84;35.62
6032;BME280;3044;43.232;27.972;2023-04-23T07:04:41;45018.59;;;-143.84;35.45
6032;BME280;3044;43.232;27.972;2023-04-23T07:07:10;45050.97;;;-143.84;35.23
6032;BME280;3044;43.232;27.972;2023-04-23T07:09:37;45045.25;;;-143.84;35.69
6032;BME280;3044;43.232;27.972;2023-04-23T07:12:04;45030.03;;;-143.84;35.39
6032;BME280;3044;43.232;27.972;2023-04-23T07:14:31;45045.25;;;-143.84;35.59
6032;BME280;3044;43.232;27.972;2023-04-23T07:16:59;45041.44;;;-143.84;35.91
6032;BME280;3044;43.232;27.972;2023-04-23T07:19:26;45030.03;;;-143.84;35.11
6032;BME280;3044;43.232;27.972;2023-04-23T07:21:53;45043.34;;;-143.84;35.95
6032;BME280;3044;43.232;27.972;2023-04-23T07:24:21;45064.31;;;-143.84;35.11
6032;BME280;3044;43.232;27.972;2023-04-23T07:26:51;45056.69;;;-143.84;35.51
6032;BME280;3044;43.232;27.972;2023-04-23T07:29:18;45056.69;;;-143.84;36.21
6032;BME280;3044;43.232;27.972;2023-04-23T07:31:45;45039.53;;;-143.84;35.86
6032;BME280;3044;43.232;27.972;2023-04-23T07:34:13;45050.97;;;-143.84;37.07
6032;BME280;3044;43.232;27.972;2023-04-23T07:36:40;45073.81;;;-143.84;36.25
6032;BME280;3044;43.232;27.972;2023-04-23T07:39:07;45041.44;;;-143.84;35.88
6032;BME280;3044;43.232;27.972;2023-04-23T07:41:36;45064.31;;;-143.84;36.27
6032;BME280;3044;43.232;27.972;2023-04-23T07:44:03;45070.00;;;-143.84;36.71
6032;BME280;3044;43.232;27.972;2023-04-23T07:46:30;45045.25;;;-143.84;36.44
6032;BME280;3044;43.232;27.972;2023-04-23T07:48:57;45060.50;;;-143.84;36.13
6032;BME280;3044;43.232;27.972;2023-04-23T07:51:25;45047.16;;;-143.84;36.53
6032;BME280;3044;43.232;27.972;2023-04-23T07:53:53;45056.69;;;-143.84;35.71
6032;BME280;3044;43.232;27.972;2023-04-23T07:56:21;45052.88;;;-143.84;36.53
6032;BME280;3044;43.232;27.972;2023-04-23T07:58:50;45041.44;;;-143.84;36.62
6032;BME280;3044;43.232;27.972;2023-04-23T08:01:18;45035.75;;;-143.84;36.23
6032;BME280;3044;43.232;27.972;2023-04-23T08:03:46;45039.53;;;-143.84;35.48
6032;BME280;3044;43.232;27.972;2023-04-23T08:06:13;45050.97;;;-143.84;36.57
6032;BME280;3044;43.232;27.972;2023-04-23T08:08:40;45041.44;;;-143.84;37.46
6032;BME280;3044;43.232;27.972;2023-04-23T08:11:07;45037.66;;;-143.84;36.42
6032;BME280;3044;43.232;27.972;2023-04-23T08:13:34;45070.00;;;-143.84;35.76
6032;BME280;3044;43.232;27.972;2023-04-23T08:16:03;45062.41;;;-143.84;35.93
6032;BME280;3044;43.232;27.972;2023-04-23T08:18:30;45045.25;;;-143.84;36.46
6032;BME280;3044;43.232;27.972;2023-04-23T08:20:57;45033.84;;;-143.84;35.07
6032;BME280;3044;43.232;27.972;2023-04-23T08:23:24;45028.13;;;-143.84;36.07
6032;BME280;3044;43.232;27.972;2023-04-23T08:25:51;45049.06;;;-143.84;34.65
6032;BME280;3044;43.232;27.972;2023-04-23T08:28:19;45060.50;;;-143.84;35.63
6032;BME280;3044;43.232;27.972;2023-04-23T08:30:46;45050.97;;;-143.84;35.04
6032;BME280;3044;43.232;27.972;2023-04-23T08:33:14;45012.88;;;-143.84;35.65
6032;BME280;3044;43.232;27.972;2023-04-23T08:35:41;45033.84;;;-143.84;34.76
6032;BME280;3044;43.232;27.972;2023-04-23T08:38:08;45056.69;;;-143.84;34.68
6032;BME280;3044;43.232;27.972;2023-04-23T08:40:36;45033.84;;;-143.84;35.99
6032;BME280;3044;43.232;27.972;2023-04-23T08:43:09;45031.94;;;-143.84;35.28
6032;BME280;3044;43.232;27.972;2023-04-23T08:45:39;45049.06;;;-143.84;35.96
6032;BME280;3044;43.232;27.972;2023-04-23T08:48:08;45056.69;;;-143.84;35.14
6032;BME280;3044;43.232;27.972;2023-04-23T08:50:41;45052.88;;;-143.84;35.08
6032;BME280;3044;43.232;27.972;2023-04-23T08:53:08;45024.31;;;-143.84;36.31
6032;BME280;3044;43.232;27.972;2023-04-23T08:55:36;45039.53;;;-143.84;36.42
6032;BME280;3044;43.232;27.972;2023-04-23T08:58:04;45022.41;;;-143.84;35.79
6032;BME280;3044;43.232;27.972;2023-04-23T09:00:32;45035.75;;;-143.84;36.09
6032;BME280;3044;43.232;27.972;2023-04-23T09:03:00;45058.59;;;-143.84;37.21
6032;BME280;3044;43.232;27.972;2023-04-23T09:05:27;45039.53;;;-143.84;36.69
6032;BME280;3044;43.232;27.972;2023-04-23T09:07:57;45041.44;;;-143.84;37.02
6032;BME280;3044;43.232;27.972;2023-04-23T09:10:24;45020.50;;;-143.84;36.44
6032;BME280;3044;43.232;27.972;2023-04-23T09:12:51;45049.06;;;-143.84;36.62
6032;BME280;3044;43.232;27.972;2023-04-23T09:15:19;45047.16;;;-143.84;37.30
6032;BME280;3044;43.232;27.972;2023-04-23T09:17:47;45075.72;;;-143.84;38.61
6032;BME280;3044;43.232;27.972;2023-04-23T09:20:14;45035.75;;;-143.84;36.87
6032;BME280;3044;43.232;27.972;2023-04-23T09:22:44;45049.06;;;-143.84;35.50
6032;BME280;3044;43.232;27.972;2023-04-23T09:25:14;45039.53;;;-143.84;36.59
6032;BME280;3044;43.232;27.972;2023-04-23T09:27:42;45022.41;;;-143.84;36.15
6032;BME280;3044;43.232;27.972;2023-04-23T09:30:10;45075.72;;;-143.84;37.07
6032;BME280;3044;43.232;27.972;2023-04-23T09:32:38;45047.16;;;-143.84;35.93
6032;BME280;3044;43.232;27.972;2023-04-23T09:35:07;45039.53;;;-143.84;35.79
6032;BME280;3044;43.232;27.972;2023-04-23T09:37:35;45039.53;;;-143.84;36.17
6032;BME280;3044;43.232;27.972;2023-04-23T09:40:04;45050.97;;;-143.84;36.07
6032;BME280;3044;43.232;27.972;2023-04-23T09:42:35;45056.69;;;-143.84;35.82
6032;BME280;3044;43.232;27.972;2023-04-23T09:45:04;45045.25;;;-143.84;35.67
6032;BME280;3044;43.232;27.972;2023-04-23T09:47:32;45047.16;;;-143.84;36.40
6032;BME280;3044;43.232;27.972;2023-04-23T09:50:00;45068.13;;;-143.84;36.91
6032;BME280;3044;43.232;27.972;2023-04-23T09:52:30;45035.75;;;-143.84;36.36
6032;BME280;3044;43.232;27.972;2023-04-23T09:54:57;45049.06;;;-143.84;36.58
6032;BME280;3044;43.232;27.972;2023-04-23T09:57:24;45039.53;;;-143.84;36.46
6032;BME280;3044;43.232;27.972;2023-04-23T09:59:55;45039.53;;;-143.84;36.61
6032;BME280;3044;43.232;27.972;2023-04-23T10:02:26;45020.50;;;-143.84;36.57
6032;BME280;3044;43.232;27.972;2023-04-23T10:04:53;45045.25;;;-143.84;36.78
6032;BME280;3044;43.232;27.972;2023-04-23T10:07:21;45050.97;;;-143.84;37.96
6032;BME280;3044;43.232;27.972;2023-04-23T10:09:50;45043.34;;;-143.84;37.65
6032;BME280;3044;43.232;27.972;2023-04-23T10:12:18;45026.22;;;-143.84;36.33
6032;BME280;3044;43.232;27.972;2023-04-23T10:14:45;45081.44;;;-143.84;36.61
6032;BME280;3044;43.232;27.972;2023-04-23T10:17:19;45064.31;;;-143.84;35.33
6032;BME280;3044;43.232;27.972;2023-04-23T10:19:47;45049.06;;;-143.84;36.02
6032;BME280;3044;43.232;27.972;2023-04-23T10:22:18;45039.53;;;-143.84;37.26
6032;BME280;3044;43.232;27.972;2023-04-23T10:24:51;45049.06;;;-143.84;35.48
6032;BME280;3044;43.232;27.972;2023-04-23T10:27:26;45056.69;;;-143.84;35.36
6032;BME280;3044;43.232;27.972;2023-04-23T10:29:53;45060.50;;;-143.84;37.21
6032;BME280;3044;43.232;27.972;2023-04-23T10:32:23;45031.94;;;-143.84;37.50
6032;BME280;3044;43.232;27.972;2023-04-23T10:34:50;45033.84;;;-143.84;36.62
6032;BME280;3044;43.232;27.972;2023-04-23T10:37:18;45052.88;;;-143.84;36.99
6032;BME280;3044;43.232;27.972;2023-04-23T10:39:49;45052.88;;;-143.84;37.01
6032;BME280;3044;43.232;27.972;2023-04-23T10:42:17;45050.97;;;-143.84;36.47
6032;BME280;3044;43.232;27.972;2023-04-23T10:44:44;45041.44;;;-143.84;36.09
6032;BME280;3044;43.232;27.972;2023-04-23T10:47:12;45050.97;;;-143.84;35.91
6032;BME280;3044;43.232;27.972;2023-04-23T10:49:41;45030.03;;;-143.84;36.98
6032;BME280;3044;43.232;27.972;2023-04-23T10:52:11;45070.00;;;-143.84;36.45
6032;BME280;3044;43.232;27.972;2023-04-23T10:54:41;45054.78;;;-143.84;36.97
6032;BME280;3044;43.232;27.972;2023-04-23T10:57:09;45060.50;;;-143.84;36.53
6032;BME280;3044;43.232;27.972;2023-04-23T10:59:38;45106.19;;;-143.84;36.65
6032;BME280;3044;43.232;27.972;2023-04-23T11:02:07;45064.31;;;-143.84;36.55
6032;BME280;3044;43.232;27.972;2023-04-23T11:04:40;45052.88;;;-143.84;36.52
6032;BME280;3044;43.232;27.972;2023-04-23T11:07:10;45068.13;;;-143.84;37.34
6032;BME280;3044;43.232;27.972;2023-04-23T11:09:39;45054.78;;;-143.84;39.15
6032;BME280;3044;43.232;27.972;2023-04-23T11:12:08;45043.34;;;-143.84;36.62
6032;BME280;3044;43.232;27.972;2023-04-23T11:14:46;45045.25;;;-143.84;37.57
6032;BME280;3044;43.232;27.972;2023-04-23T11:17:15;45050.97;;;-143.84;37.05
6032;BME280;3044;43.232;27.972;2023-04-23T11:20:05;45045.25;;;-143.84;36.44
6032;BME280;3044;43.232;27.972;2023-04-23T11:22:37;45045.25;;;-143.84;36.79
6032;BME280;3044;43.232;27.972;2023-04-23T11:25:08;45049.06;;;-143.84;37.93
6032;BME280;3044;43.232;27.972;2023-04-23T11:27:37;45054.78;;;-143.84;37.95
6032;BME280;3044;43.232;27.972;2023-04-23T11:30:07;45054.78;;;-143.84;37.22
6032;BME280;3044;43.232;27.972;2023-04-23T11:32:37;45056.69;;;-143.84;37.72
6032;BME280;3044;43.232;27.972;2023-04-23T11:35:06;45083.34;;;-143.84;38.21
6032;BME280;3044;43.232;27.972;2023-04-23T11:37:39;45052.88;;;-143.84;39.21
6032;BME280;3044;43.232;27.972;2023-04-23T11:40:07;45035.75;;;-143.84;38.04
6032;BME280;3044;43.232;27.972;2023-04-23T11:42:40;45052.88;;;-143.84;37.97
6032;BME280;3044;43.232;27.972;2023-04-23T11:45:17;45052.88;;;-143.84;37.50
6032;BME280;3044;43.232;27.972;2023-04-23T11:47:46;45087.16;;;-143.84;38.40
6032;BME280;3044;43.232;27.972;2023-04-23T11:50:17;45054.78;;;-143.84;38.24
6032;BME280;3044;43.232;27.972;2023-04-23T11:52:46;45062.41;;;-143.84;38.57
6032;BME280;3044;43.232;27.972;2023-04-23T11:55:14;45047.16;;;-143.84;40.21
6032;BME280;3044;43.232;27.972;2023-04-23T11:57:42;45077.63;;;-143.84;40.57
6032;BME280;3044;43.232;27.972;2023-04-23T12:00:13;45081.44;;;-143.84;41.68
6032;BME280;3044;43.232;27.972;2023-04-23T12:02:49;45058.59;;;-143.84;40.45
6032;BME280;3044;43.232;27.972;2023-04-23T12:05:19;45068.13;;;-143.84;41.31
6032;BME280;3044;43.232;27.972;2023-04-23T12:07:49;45083.34;;;-143.84;42.74
6032;BME280;3044;43.232;27.972;2023-04-23T12:10:18;45070.00;;;-143.84;42.03
6032;BME280;3044;43.232;27.972;2023-04-23T12:12:49;45079.53;;;-143.84;43.43
6032;BME280;3044;43.232;27.972;2023-04-23T12:15:17;45090.97;;;-143.84;42.02
6032;BME280;3044;43.232;27.972;2023-04-23T12:17:47;45079.53;;;-143.84;45.55
6032;BME280;3044;43.232;27.972;2023-04-23T12:20:17;45102.38;;;-143.84;45.56
6032;BME280;3044;43.232;27.972;2023-04-23T12:22:44;45073.81;;;-143.84;49.02
6032;BME280;3044;43.232;27.972;2023-04-23T12:25:13;45085.25;;;-143.84;54.06
6032;BME280;3044;43.232;27.972;2023-04-23T12:27:41;45060.50;;;-143.84;52.48
6032;BME280;3044;43.232;27.972;2023-04-23T12:30:10;45089.06;;;-143.84;50.56
6032;BME280;3044;43.232;27.972;2023-04-23T12:32:39;45073.81;;;-143.84;47.49
6032;BME280;3044;43.232;27.972;2023-04-23T12:35:07;45085.25;;;-143.84;46.20
6032;BME280;3044;43.232;27.972;2023-04-23T12:37:36;45085.25;;;-143.84;41.59
6032;BME280;3044;43.232;27.972;2023-04-23T12:40:04;45077.63;;;-143.84;41.45
6032;BME280;3044;43.232;27.972;2023-04-23T12:42:35;45083.34;;;-143.84;40.51
6032;BME280;3044;43.232;27.972;2023-04-23T12:45:07;45064.31;;;-143.84;40.55
6032;BME280;3044;43.232;27.972;2023-04-23T12:47:34;45075.72;;;-143.84;40.00
6032;BME280;3044;43.232;27.972;2023-04-23T12:50:02;45068.13;;;-143.84;39.52
6032;BME280;3044;43.232;27.972;2023-04-23T12:52:30;45081.44;;;-143.84;41.37
6032;BME280;3044;43.232;27.972;2023-04-23T12:54:57;45077.63;;;-143.84;40.59